Afton, Iowa
Current Conditions -  °F | °C
As of 12:15 PM on Thursday 30 Oct 2014 (Local Time) from KCSQ Reporting Station
Clear Clear  
Wind Chill: 55°   Ceiling: Unl
Heat Index: 55°   Visibility: NA
Dew Point: 41°   Wind: 13mph
Humidity: 58%   Direction: 340°NNW
Pressure: 30.02"   Gusts: NA
Location:  41.03°N, 94.2°W
Report Text: KCSQ 301715Z AUTO 34011KT CLR 13/05 A3002 RMK AO2
Loading
Personal Weather Stations






























Interactive Weather Map
Tropical Storm Tracking
New forecast layout! Learn more

10-Day Weather Forecast

Advertisements
Track Severe Weather on mobile